BCZ weather

Milyakburra Airport
Bickerton Island, Northern Territory, Australia

Public forecast

Using degrees Celsius for public forecast. Weather courtesy of forecast.io.

METAR (pilot weather report)

Closest report is Groote Eylandt Airport, 19.0 nm (35.3 km) SE. Retrieved 2019/05/25 20:00 UTC (49 minutes ago):

YGTE 252000Z AUTO 00000KT 9999 // NCD 20/20 Q1012

TAF (pilot weather forecast)

Closest forecast is Gove Airport, 97.6 nm (180.8 km) NNE. Retrieved 2019/05/25 20:00 UTC (49 minutes ago):

TAF YPGV 251853Z 2520/2608 13006KT 9999 SCT020 FM252300 12012KT 9999 SCT025